createdAt,value
2022-09-26T00:01:43.797Z,47.50
2022-09-26T00:04:19.237Z,47.80
2022-09-26T00:06:51.849Z,47.80
2022-09-26T00:09:21.500Z,47.80
2022-09-26T00:11:52.290Z,47.50
2022-09-26T00:14:23.056Z,47.60
2022-09-26T00:16:51.510Z,47.90
2022-09-26T00:19:21.862Z,48.00
2022-09-26T00:21:50.540Z,48.00
2022-09-26T00:24:19.061Z,47.70
2022-09-26T00:26:47.754Z,47.50
2022-09-26T00:29:17.319Z,47.70
2022-09-26T00:31:47.661Z,47.60
2022-09-26T00:34:17.884Z,47.90
2022-09-26T00:36:46.413Z,47.80
2022-09-26T00:39:16.697Z,47.60
2022-09-26T00:41:45.886Z,47.80
2022-09-26T00:44:40.902Z,47.70
2022-09-26T00:47:22.101Z,47.60
2022-09-26T00:49:53.477Z,48.00
2022-09-26T00:52:26.304Z,47.80
2022-09-26T00:54:57.520Z,47.60
2022-09-26T00:57:30.307Z,47.80
2022-09-26T01:00:02.764Z,47.60
2022-09-26T01:02:31.470Z,47.90
2022-09-26T01:05:01.578Z,47.90
2022-09-26T01:07:31.550Z,47.70
2022-09-26T01:10:00.286Z,47.90
2022-09-26T01:12:28.680Z,48.00
2022-09-26T01:15:00.210Z,48.10
2022-09-26T01:17:30.249Z,47.80
2022-09-26T01:20:10.475Z,47.70
2022-09-26T01:23:17.396Z,47.80
2022-09-26T01:26:29.850Z,48.40
2022-09-26T01:29:22.061Z,48.70
2022-09-26T01:32:19.313Z,48.60
2022-09-26T01:34:56.129Z,48.10
2022-09-26T01:37:35.396Z,48.20
2022-09-26T01:40:11.237Z,48.20
2022-09-26T01:42:52.763Z,48.00
2022-09-26T01:45:24.486Z,47.90
2022-09-26T01:48:00.187Z,48.30
2022-09-26T01:50:35.126Z,48.50
2022-09-26T01:53:07.398Z,48.20
2022-09-26T01:55:40.876Z,48.60
2022-09-26T01:58:15.576Z,48.80
2022-09-26T02:00:47.763Z,48.60
2022-09-26T02:03:22.182Z,48.40
2022-09-26T02:05:54.782Z,48.90
2022-09-26T02:08:29.075Z,48.90
2022-09-26T02:11:02.363Z,48.60
2022-09-26T02:13:36.298Z,48.50
2022-09-26T02:16:09.420Z,48.90
2022-09-26T02:18:44.388Z,48.60
2022-09-26T02:21:16.585Z,48.60
2022-09-26T02:23:44.924Z,48.40
2022-09-26T02:26:13.391Z,48.20
2022-09-26T02:28:41.933Z,48.50
2022-09-26T02:31:10.902Z,48.40
2022-09-26T02:33:40.463Z,48.60
2022-09-26T02:36:11.161Z,48.80
2022-09-26T02:38:39.434Z,48.80
2022-09-26T02:41:17.767Z,48.90
2022-09-26T02:44:03.973Z,48.80
2022-09-26T02:46:53.608Z,48.60
2022-09-26T02:49:45.106Z,48.70
2022-09-26T02:52:37.070Z,48.50
2022-09-26T02:55:16.108Z,48.30
2022-09-26T02:57:53.234Z,48.30
2022-09-26T03:00:25.366Z,48.60
2022-09-26T03:03:03.099Z,48.70
2022-09-26T03:05:35.994Z,48.90
2022-09-26T03:08:08.432Z,49.00
2022-09-26T03:10:39.223Z,48.90
2022-09-26T03:13:09.746Z,48.90
2022-09-26T03:15:40.821Z,49.10
2022-09-26T03:18:12.919Z,49.10
2022-09-26T03:20:42.683Z,48.70
2022-09-26T03:23:10.828Z,48.60
2022-09-26T03:25:39.638Z,48.70
2022-09-26T03:28:08.317Z,48.70
2022-09-26T03:30:36.558Z,48.60
2022-09-26T03:33:05.201Z,48.70
2022-09-26T03:35:33.784Z,48.60
2022-09-26T03:38:03.696Z,48.90
2022-09-26T03:40:31.935Z,48.60
2022-09-26T03:43:00.713Z,49.10
2022-09-26T03:45:29.556Z,49.10
2022-09-26T03:47:58.474Z,49.10
2022-09-26T03:50:26.741Z,48.70
2022-09-26T03:52:55.068Z,49.40
2022-09-26T03:55:25.336Z,49.40
2022-09-26T03:57:53.792Z,49.40
2022-09-26T04:00:22.242Z,49.10
2022-09-26T04:02:51.291Z,49.00
2022-09-26T04:05:19.817Z,49.50
2022-09-26T04:07:48.613Z,49.20
2022-09-26T04:10:17.117Z,49.50
2022-09-26T04:12:50.724Z,49.10
2022-09-26T04:15:19.185Z,49.50
2022-09-26T04:17:47.549Z,49.30
2022-09-26T04:20:15.853Z,49.80
2022-09-26T04:22:44.715Z,49.50
2022-09-26T04:25:13.301Z,49.20
2022-09-26T04:27:41.747Z,49.20
2022-09-26T04:30:12.916Z,49.30
2022-09-26T04:32:41.493Z,49.20
2022-09-26T04:35:10.331Z,49.30
2022-09-26T04:37:38.439Z,49.30
2022-09-26T04:40:07.440Z,49.60
2022-09-26T04:42:37.062Z,49.20
2022-09-26T04:45:06.215Z,49.50
2022-09-26T04:47:36.105Z,49.60
2022-09-26T04:50:04.618Z,49.50
2022-09-26T04:52:33.146Z,49.90
2022-09-26T04:55:01.249Z,49.70
2022-09-26T04:57:29.753Z,50.30
2022-09-26T04:59:59.186Z,50.50
2022-09-26T05:02:30.494Z,50.20
2022-09-26T05:05:02.098Z,50.00
2022-09-26T05:07:31.965Z,50.30
2022-09-26T05:10:00.327Z,50.00
2022-09-26T05:12:29.066Z,49.70
2022-09-26T05:14:57.418Z,50.00
2022-09-26T05:17:27.040Z,50.50
2022-09-26T05:19:57.113Z,50.00
2022-09-26T05:22:26.647Z,49.90
2022-09-26T05:25:12.581Z,49.90
2022-09-26T05:27:41.091Z,49.70
2022-09-26T05:30:10.609Z,49.70
2022-09-26T05:32:39.293Z,49.60
2022-09-26T05:35:08.257Z,49.50
2022-09-26T05:37:37.857Z,49.40
2022-09-26T05:40:24.834Z,49.20
2022-09-26T05:42:53.639Z,49.00
2022-09-26T05:45:21.910Z,49.30
2022-09-26T05:47:51.338Z,48.90
2022-09-26T05:50:22.376Z,49.10
2022-09-26T05:52:52.209Z,49.10
2022-09-26T05:55:20.537Z,49.10
2022-09-26T05:57:52.460Z,49.20
2022-09-26T06:00:20.948Z,49.30
2022-09-26T06:02:56.777Z,49.20
2022-09-26T06:05:25.400Z,49.30
2022-09-26T06:07:55.103Z,49.30
2022-09-26T06:10:23.858Z,49.40
2022-09-26T06:12:52.044Z,49.20
2022-09-26T06:15:20.379Z,49.50
2022-09-26T06:17:49.189Z,49.10
2022-09-26T06:20:17.633Z,49.20
2022-09-26T06:22:45.966Z,49.00
2022-09-26T06:25:15.723Z,49.30
2022-09-26T06:27:44.936Z,49.40
2022-09-26T06:30:13.613Z,49.70
2022-09-26T06:32:41.831Z,49.20
2022-09-26T06:35:10.780Z,49.40
2022-09-26T06:37:39.496Z,49.30
2022-09-26T06:40:11.592Z,49.30
2022-09-26T06:42:41.584Z,49.40
2022-09-26T06:45:11.947Z,49.60
2022-09-26T06:47:40.806Z,49.40
2022-09-26T06:50:11.130Z,49.20
2022-09-26T06:52:40.120Z,49.20
2022-09-26T06:55:10.263Z,49.40
2022-09-26T06:57:40.244Z,49.30
2022-09-26T07:00:16.113Z,49.30
2022-09-26T07:02:52.024Z,49.00
2022-09-26T07:05:21.251Z,49.20
2022-09-26T07:07:49.821Z,49.20
2022-09-26T07:10:19.988Z,49.00
2022-09-26T07:12:49.324Z,49.10
2022-09-26T07:15:20.457Z,48.90
2022-09-26T07:17:49.504Z,48.90
2022-09-26T07:20:20.682Z,48.70
2022-09-26T07:22:48.916Z,48.80
2022-09-26T07:25:17.172Z,48.50
2022-09-26T07:27:51.173Z,47.40
2022-09-26T07:30:22.692Z,47.10
2022-09-26T07:32:51.328Z,46.70
2022-09-26T07:35:19.497Z,46.70
2022-09-26T07:37:52.903Z,46.50
2022-09-26T07:40:22.856Z,46.70
2022-09-26T07:43:15.211Z,46.20
2022-09-26T07:45:59.978Z,46.40
2022-09-26T07:48:46.096Z,46.10
2022-09-26T07:51:15.003Z,45.80
2022-09-26T07:53:43.294Z,45.80
2022-09-26T07:56:12.181Z,45.90
2022-09-26T07:58:42.235Z,45.60
2022-09-26T08:01:14.277Z,45.50
2022-09-26T08:03:44.540Z,45.20
2022-09-26T08:06:14.859Z,44.60
2022-09-26T08:08:43.137Z,44.70
2022-09-26T08:11:17.104Z,44.60
2022-09-26T08:13:46.228Z,44.50
2022-09-26T08:16:19.577Z,43.80
2022-09-26T08:18:48.416Z,44.30
2022-09-26T08:21:17.974Z,44.20
2022-09-26T08:23:46.934Z,43.80
2022-09-26T08:26:16.132Z,44.00
2022-09-26T08:28:45.928Z,43.60
2022-09-26T08:31:16.451Z,43.50
2022-09-26T08:33:44.735Z,43.30
2022-09-26T08:36:15.352Z,42.90
2022-09-26T08:38:43.729Z,42.40
2022-09-26T08:41:32.809Z,41.80
2022-09-26T08:44:09.915Z,41.60
2022-09-26T08:46:57.014Z,41.70
2022-09-26T08:49:49.168Z,41.60
2022-09-26T08:52:29.199Z,41.60
2022-09-26T08:55:00.492Z,41.60
2022-09-26T08:57:37.840Z,41.40
2022-09-26T09:00:17.807Z,40.00
2022-09-26T09:02:56.487Z,39.70
2022-09-26T09:05:27.981Z,39.10
2022-09-26T09:07:59.075Z,39.50
2022-09-26T09:10:40.897Z,39.10
2022-09-26T09:13:21.452Z,37.80
2022-09-26T09:16:08.360Z,37.60
2022-09-26T09:18:45.975Z,37.90
2022-09-26T09:21:24.193Z,37.50
2022-09-26T09:24:04.019Z,37.10
2022-09-26T09:30:15.786Z,36.20
2022-09-26T09:32:50.184Z,36.30
2022-09-26T09:35:26.569Z,36.10
2022-09-26T09:37:55.595Z,35.60
2022-09-26T09:40:29.311Z,35.60
2022-09-26T09:43:03.819Z,35.30
2022-09-26T09:45:39.391Z,35.60
2022-09-26T09:48:11.906Z,35.50
2022-09-26T09:50:51.334Z,35.40
2022-09-26T09:53:36.385Z,35.10
2022-09-26T09:56:19.055Z,34.40
2022-09-26T09:59:03.559Z,34.70
2022-09-26T10:01:36.580Z,34.10
2022-09-26T10:04:13.886Z,33.80
2022-09-26T10:06:47.352Z,33.60
2022-09-26T10:09:38.646Z,33.70
2022-09-26T10:12:17.172Z,33.50
2022-09-26T10:14:54.979Z,32.60
2022-09-26T10:17:24.463Z,33.10
2022-09-26T10:19:53.062Z,32.40
2022-09-26T10:22:33.174Z,32.30
2022-09-26T10:25:03.950Z,32.00
2022-09-26T10:27:37.105Z,31.70
2022-09-26T10:30:21.738Z,31.60
2022-09-26T10:32:56.487Z,31.40
2022-09-26T10:35:29.636Z,31.10
2022-09-26T10:38:04.901Z,31.00
2022-09-26T10:40:47.068Z,30.60
2022-09-26T10:43:23.083Z,30.70
2022-09-26T10:45:54.896Z,30.50
2022-09-26T10:48:29.098Z,30.20
2022-09-26T10:51:00.468Z,29.90
2022-09-26T10:53:36.127Z,30.40
2022-09-26T10:56:09.758Z,29.80
2022-09-26T10:58:43.265Z,30.00
2022-09-26T11:01:21.080Z,30.20
2022-09-26T11:03:50.874Z,30.10
2022-09-26T11:06:27.315Z,30.70
2022-09-26T11:09:03.127Z,30.50
2022-09-26T11:11:37.285Z,30.00
2022-09-26T11:14:07.675Z,29.90
2022-09-26T11:16:50.342Z,29.60
2022-09-26T11:19:34.252Z,29.30
2022-09-26T11:22:14.498Z,29.00
2022-09-26T11:24:53.041Z,29.40
2022-09-26T11:27:44.025Z,29.20
2022-09-26T11:30:15.000Z,28.70
2022-09-26T11:32:45.839Z,28.80
2022-09-26T11:35:17.879Z,28.80
2022-09-26T11:38:05.436Z,28.90
2022-09-26T11:40:54.511Z,28.50
2022-09-26T11:43:37.162Z,28.10
2022-09-26T11:46:23.578Z,28.70
2022-09-26T11:49:10.552Z,28.20
2022-09-26T11:51:54.252Z,28.00
2022-09-26T11:54:45.642Z,28.60
2022-09-26T11:57:33.011Z,28.60
2022-09-26T12:00:12.037Z,28.90
2022-09-26T12:03:17.173Z,27.80
2022-09-26T12:05:53.104Z,27.90
2022-09-26T12:08:36.855Z,27.30
2022-09-26T12:11:17.745Z,27.40
2022-09-26T12:13:54.414Z,27.70
2022-09-26T12:16:28.798Z,27.40
2022-09-26T12:19:05.643Z,27.50
2022-09-26T12:22:08.015Z,27.40
2022-09-26T12:24:45.055Z,27.10
2022-09-26T12:27:21.823Z,27.70
2022-09-26T12:30:03.452Z,27.90
2022-09-26T12:32:55.636Z,28.50
2022-09-26T12:35:42.435Z,28.30
2022-09-26T12:38:33.628Z,28.30
2022-09-26T12:41:25.025Z,28.00
2022-09-26T12:44:19.019Z,28.10
2022-09-26T12:47:13.630Z,28.70
2022-09-26T12:50:17.256Z,28.80
2022-09-26T12:53:12.537Z,29.10
2022-09-26T12:55:49.136Z,28.30
2022-09-26T12:58:31.248Z,28.60
2022-09-26T13:01:09.601Z,28.60
2022-09-26T13:04:05.910Z,28.40
2022-09-26T13:07:18.186Z,27.80
2022-09-26T13:10:06.100Z,28.10
2022-09-26T13:13:02.539Z,28.10
2022-09-26T13:15:38.048Z,28.20
2022-09-26T13:18:14.020Z,28.50
2022-09-26T13:20:45.730Z,28.30
2022-09-26T13:23:27.460Z,28.20
2022-09-26T13:26:00.950Z,28.00
2022-09-26T13:28:37.691Z,27.90
2022-09-26T13:31:19.053Z,28.30
2022-09-26T13:33:53.455Z,28.40
2022-09-26T13:36:25.706Z,29.30
2022-09-26T13:39:03.440Z,29.80
2022-09-26T13:41:39.266Z,30.40
2022-09-26T13:44:22.856Z,31.00
2022-09-26T13:47:03.333Z,30.80
2022-09-26T13:49:39.418Z,31.60
2022-09-26T13:52:19.187Z,31.60
2022-09-26T13:54:59.110Z,31.90
2022-09-26T13:57:34.573Z,31.70
2022-09-26T14:00:08.216Z,31.80
2022-09-26T14:02:37.481Z,32.00
2022-09-26T14:05:28.313Z,31.70
2022-09-26T14:08:20.996Z,31.60
2022-09-26T14:10:54.512Z,32.00
2022-09-26T14:13:34.991Z,32.00
2022-09-26T14:16:04.964Z,32.00
2022-09-26T14:18:55.217Z,32.20
2022-09-26T14:21:35.775Z,32.20
2022-09-26T14:24:29.594Z,32.90
2022-09-26T14:27:26.647Z,33.70
2022-09-26T14:30:01.079Z,33.40
2022-09-26T14:32:35.894Z,33.60
2022-09-26T14:35:16.454Z,34.50
2022-09-26T14:37:49.159Z,34.90
2022-09-26T14:40:27.111Z,35.40
2022-09-26T14:43:00.320Z,36.00
2022-09-26T14:45:46.472Z,36.50
2022-09-26T14:48:27.218Z,36.90
2022-09-26T14:51:00.365Z,36.90
2022-09-26T14:53:34.799Z,37.10
2022-09-26T14:56:08.250Z,37.20
2022-09-26T14:58:52.847Z,37.50
2022-09-26T15:01:26.939Z,37.80
2022-09-26T15:03:58.583Z,37.40
2022-09-26T15:06:28.352Z,37.10
2022-09-26T15:08:59.248Z,37.10
2022-09-26T15:11:34.757Z,37.10
2022-09-26T15:14:17.666Z,37.20
2022-09-26T15:16:51.419Z,37.20
2022-09-26T15:19:24.735Z,37.40
2022-09-26T15:21:59.498Z,37.00
2022-09-26T15:24:29.778Z,37.20
2022-09-26T15:27:03.762Z,37.00
2022-09-26T15:29:32.049Z,37.30
2022-09-26T15:32:01.366Z,37.50
2022-09-26T15:34:34.901Z,37.30
2022-09-26T15:37:13.100Z,37.30
2022-09-26T15:39:43.351Z,37.20
2022-09-26T15:42:41.643Z,37.40
2022-09-26T15:45:25.686Z,37.10
2022-09-26T15:47:55.636Z,37.10
2022-09-26T15:50:28.348Z,37.00
2022-09-26T15:53:03.447Z,37.50
2022-09-26T15:55:35.339Z,36.90
2022-09-26T15:58:08.141Z,36.90
2022-09-26T16:00:38.949Z,37.40
2022-09-26T16:03:29.045Z,37.30
2022-09-26T16:05:57.749Z,37.30
2022-09-26T16:08:29.356Z,37.50
2022-09-26T16:11:00.455Z,37.40
2022-09-26T16:13:36.830Z,37.70
2022-09-26T16:16:09.087Z,37.90
2022-09-26T16:18:47.115Z,38.10
2022-09-26T16:21:20.203Z,37.80
2022-09-26T16:23:50.581Z,38.20
2022-09-26T16:26:41.339Z,38.20
2022-09-26T16:29:11.112Z,38.60
2022-09-26T16:31:47.039Z,38.30
2022-09-26T16:34:22.271Z,38.30
2022-09-26T16:36:51.452Z,38.70
2022-09-26T16:39:22.867Z,38.80
2022-09-26T16:42:02.695Z,38.80
2022-09-26T16:44:36.664Z,39.30
2022-09-26T16:47:09.148Z,38.70
2022-09-26T16:49:45.559Z,38.80
2022-09-26T16:52:33.020Z,38.90
2022-09-26T16:55:02.716Z,38.80
2022-09-26T16:57:33.380Z,39.40
2022-09-26T17:00:24.071Z,40.70
2022-09-26T17:02:52.328Z,40.70
2022-09-26T17:05:22.775Z,40.70
2022-09-26T17:07:51.766Z,40.90
2022-09-26T17:10:21.876Z,40.60
2022-09-26T17:12:51.685Z,40.90
2022-09-26T17:15:26.564Z,41.10
2022-09-26T17:17:55.238Z,41.20
2022-09-26T17:20:24.427Z,41.00
2022-09-26T17:22:54.814Z,41.00
2022-09-26T17:25:25.130Z,40.80
2022-09-26T17:27:57.775Z,41.00
2022-09-26T17:30:27.976Z,40.90
2022-09-26T17:32:59.160Z,41.30
2022-09-26T17:35:29.885Z,41.20
2022-09-26T17:37:58.206Z,41.20
2022-09-26T17:40:28.717Z,41.00
2022-09-26T17:43:00.058Z,41.30
2022-09-26T17:45:32.386Z,40.90
2022-09-26T17:48:03.420Z,40.80
2022-09-26T17:50:33.391Z,41.00
2022-09-26T17:53:03.528Z,41.10
2022-09-26T17:55:33.471Z,40.90
2022-09-26T17:58:02.233Z,41.20
2022-09-26T18:00:43.707Z,41.40
2022-09-26T18:03:19.213Z,41.40
2022-09-26T18:05:47.773Z,41.20
2022-09-26T18:08:23.376Z,41.20
2022-09-26T18:10:56.977Z,41.00
2022-09-26T18:13:28.617Z,40.80
2022-09-26T18:15:59.662Z,41.10
2022-09-26T18:18:30.082Z,41.30
2022-09-26T18:21:03.588Z,40.90
2022-09-26T18:23:40.949Z,41.10
2022-09-26T18:26:15.237Z,41.10
2022-09-26T18:28:43.525Z,40.70
2022-09-26T18:31:13.276Z,41.00
2022-09-26T18:33:43.109Z,41.10
2022-09-26T18:36:12.708Z,40.90
2022-09-26T18:38:41.311Z,41.10
2022-09-26T18:41:11.384Z,41.10
2022-09-26T18:43:42.342Z,40.90
2022-09-26T18:46:16.079Z,41.30
2022-09-26T18:48:45.292Z,41.00
2022-09-26T18:51:13.730Z,41.00
2022-09-26T18:53:42.115Z,41.20
2022-09-26T18:56:30.193Z,41.20
2022-09-26T18:58:58.423Z,41.10
2022-09-26T19:01:31.100Z,41.30
2022-09-26T19:04:01.517Z,41.20
2022-09-26T19:06:33.003Z,41.40
2022-09-26T19:09:03.454Z,41.40
2022-09-26T19:11:34.709Z,41.20
2022-09-26T19:14:12.247Z,41.10
2022-09-26T19:16:42.595Z,41.80
2022-09-26T19:19:11.228Z,41.50
2022-09-26T19:21:42.409Z,41.70
2022-09-26T19:24:20.343Z,41.90
2022-09-26T19:26:52.424Z,41.80
2022-09-26T19:29:28.174Z,41.70
2022-09-26T19:31:58.296Z,41.70
2022-09-26T19:34:31.868Z,41.60
2022-09-26T19:37:03.257Z,41.80
2022-09-26T19:39:32.321Z,42.00
2022-09-26T19:42:01.737Z,42.10
2022-09-26T19:44:30.070Z,41.90
2022-09-26T19:47:04.690Z,42.30
2022-09-26T19:49:33.476Z,42.30
2022-09-26T19:52:02.656Z,42.50
2022-09-26T19:54:31.598Z,42.70
2022-09-26T19:56:59.983Z,42.50
2022-09-26T19:59:28.152Z,42.50
2022-09-26T20:02:00.980Z,42.80
2022-09-26T20:04:31.172Z,42.80
2022-09-26T20:06:59.397Z,42.70
2022-09-26T20:09:28.780Z,42.80
2022-09-26T20:11:57.258Z,42.90
2022-09-26T20:14:25.626Z,42.90
2022-09-26T20:16:59.375Z,43.30
2022-09-26T20:19:40.982Z,43.00
2022-09-26T20:22:17.363Z,43.30
2022-09-26T20:24:48.118Z,43.00
2022-09-26T20:27:19.565Z,42.80
2022-09-26T20:30:07.886Z,43.30
2022-09-26T20:32:36.843Z,43.30
2022-09-26T20:35:07.112Z,43.60
2022-09-26T20:37:40.140Z,43.60
2022-09-26T20:40:17.489Z,43.70
2022-09-26T20:42:48.514Z,43.80
2022-09-26T20:45:18.833Z,43.70
2022-09-26T20:47:47.333Z,43.30
2022-09-26T20:50:19.468Z,43.60
2022-09-26T20:52:47.883Z,44.00
2022-09-26T20:55:18.062Z,43.70
2022-09-26T20:57:47.883Z,43.00
2022-09-26T21:00:17.940Z,43.80
2022-09-26T21:02:47.848Z,43.80
2022-09-26T21:05:19.915Z,43.80
2022-09-26T21:07:48.432Z,44.00
2022-09-26T21:10:25.634Z,43.90
2022-09-26T21:12:55.038Z,43.60
2022-09-26T21:15:24.850Z,43.90
2022-09-26T21:17:54.424Z,43.70
2022-09-26T21:20:26.338Z,43.80
2022-09-26T21:22:55.927Z,43.40
2022-09-26T21:25:26.551Z,43.90
2022-09-26T21:27:58.622Z,44.20
2022-09-26T21:30:27.233Z,43.90
2022-09-26T21:32:58.266Z,43.90
2022-09-26T21:35:32.065Z,43.90
2022-09-26T21:38:01.665Z,43.70
2022-09-26T21:40:33.643Z,43.60
2022-09-26T21:43:07.674Z,43.60
2022-09-26T21:45:36.436Z,43.70
2022-09-26T21:48:04.917Z,44.00
2022-09-26T21:50:34.743Z,43.90
2022-09-26T21:53:06.936Z,43.90
2022-09-26T21:55:39.520Z,43.60
2022-09-26T21:58:12.971Z,43.90
2022-09-26T22:00:41.710Z,43.90
2022-09-26T22:03:10.324Z,43.30
2022-09-26T22:05:40.466Z,44.00
2022-09-26T22:08:08.745Z,44.00
2022-09-26T22:10:38.496Z,43.70
2022-09-26T22:13:06.970Z,43.90
2022-09-26T22:15:35.412Z,43.80
2022-09-26T22:18:03.638Z,43.70
2022-09-26T22:20:31.975Z,43.70
2022-09-26T22:23:01.485Z,43.60
2022-09-26T22:25:30.910Z,43.90
2022-09-26T22:27:59.793Z,44.10
2022-09-26T22:30:28.002Z,44.00
2022-09-26T22:32:56.510Z,43.30
2022-09-26T22:35:24.760Z,43.50
2022-09-26T22:37:53.506Z,43.60
2022-09-26T22:40:23.135Z,43.80
2022-09-26T22:42:52.063Z,43.90
2022-09-26T22:45:20.491Z,44.10
2022-09-26T22:47:48.840Z,43.80
2022-09-26T22:50:17.328Z,43.60
2022-09-26T22:52:46.858Z,44.00
2022-09-26T22:55:16.628Z,43.80
2022-09-26T22:57:51.160Z,43.70
2022-09-26T23:00:21.016Z,43.50
2022-09-26T23:02:49.367Z,44.00
2022-09-26T23:05:17.752Z,43.90
2022-09-26T23:07:46.254Z,44.20
2022-09-26T23:10:14.421Z,43.80
2022-09-26T23:12:42.550Z,43.90
2022-09-26T23:15:12.602Z,44.20
2022-09-26T23:17:40.868Z,44.20
2022-09-26T23:20:09.869Z,44.20
2022-09-26T23:22:39.820Z,44.00
2022-09-26T23:25:09.313Z,43.90
2022-09-26T23:27:38.818Z,43.90
2022-09-26T23:30:08.384Z,44.30
2022-09-26T23:32:37.953Z,44.40
2022-09-26T23:35:06.905Z,44.40
2022-09-26T23:37:35.275Z,44.20
2022-09-26T23:40:03.649Z,44.60
2022-09-26T23:42:32.003Z,44.60
2022-09-26T23:45:00.238Z,44.30
2022-09-26T23:47:28.571Z,44.30
2022-09-26T23:49:58.045Z,44.40
2022-09-26T23:52:26.669Z,44.40
2022-09-26T23:54:55.046Z,44.30
2022-09-26T23:57:24.168Z,44.50
2022-09-26T23:59:52.400Z,44.60
